Time;durP1;ratioP1;P1;durP2;ratioP2;P2;SDS_P1;SDS_P2;PMS_P1;PMS_P2;Temp;Humidity;BMP_temperature;BMP_pressure;BME280_temperature;BME280_humidity;BME280_pressure;Samples;Min_cycle;Max_cycle;Signal;HPM_P1;HPM_P2
2023/11/13 00:00:50;;;;;;;;;80.00;73.75;;;;;16.42;100.00;100372.63;2072865;28;46324;-47
2023/11/13 00:01:51;;;;;;;;;82.00;76.00;;;;;16.44;100.00;100378.75;2071531;28;46172;-50
2023/11/13 00:02:51;;;;;;;;;129.00;119.67;;;;;16.44;100.00;100376.09;2103883;27;46350;-49
2023/11/13 00:03:51;;;;;;;;;95.50;90.75;;;;;16.44;100.00;100378.75;2103714;28;46334;-51
2023/11/13 00:04:51;;;;;;;;;54.00;42.75;;;;;16.45;100.00;100370.66;2106184;28;45951;-50
2023/11/13 00:05:52;;;;;;;;;102.67;95.00;;;;;16.45;100.00;100367.09;2104040;27;45532;-51
2023/11/13 00:06:52;;;;;;;;;75.00;64.25;;;;;16.44;100.00;100357.34;2077765;28;46871;-49
2023/11/13 00:07:55;;;;;;;;;89.50;79.50;;;;;16.45;100.00;100367.09;2096861;28;46257;-48
2023/11/13 00:08:55;;;;;;;;;67.40;53.60;;;;;16.45;100.00;100381.34;2095309;28;46573;-47
2023/11/13 00:09:56;;;;;;;;;75.50;62.75;;;;;16.45;100.00;100378.69;2096725;28;46459;-47
2023/11/13 00:10:57;;;;;;;;;74.80;63.00;;;;;16.42;100.00;100373.47;2096776;28;46938;-49
2023/11/13 00:11:57;;;;;;;;;139.67;124.67;;;;;16.41;100.00;100377.09;2096623;28;46393;-52
2023/11/13 00:12:57;;;;;;;;;69.75;55.50;;;;;16.42;100.00;100367.25;2096487;28;46983;-48
2023/11/13 00:13:59;;;;;;;;;48.25;38.25;;;;;16.40;100.00;100364.66;2097136;28;46519;-49
2023/11/13 00:14:59;;;;;;;;;69.80;55.40;;;;;16.41;100.00;100362.84;2096493;28;46480;-50
2023/11/13 00:15:59;;;;;;;;;48.50;39.50;;;;;16.41;100.00;100366.41;2096745;28;46905;-46
2023/11/13 00:17:02;;;;;;;;;45.50;38.00;;;;;16.42;100.00;100362.78;2096859;28;46404;-52
2023/11/13 00:18:03;;;;;;;;;81.00;73.75;;;;;16.43;100.00;100361.81;2096479;28;46962;-48
2023/11/13 00:19:03;;;;;;;;;59.00;46.25;;;;;16.43;100.00;100356.47;2096673;28;46748;-47
2023/11/13 00:20:05;;;;;;;;;62.25;49.25;;;;;16.43;100.00;100345.75;2088640;28;46461;-50
2023/11/13 00:21:06;;;;;;;;;44.20;34.60;;;;;16.42;100.00;100338.66;2088229;28;46541;-48
2023/11/13 00:22:06;;;;;;;;;57.00;46.50;;;;;16.33;100.00;100336.47;2104038;28;46816;-52
2023/11/13 00:23:06;;;;;;;;;204.75;187.75;;;;;16.32;100.00;100341.91;2095693;28;46904;-49
2023/11/13 00:24:07;;;;;;;;;72.75;63.25;;;;;16.31;100.00;100341.03;2086911;28;46652;-53
2023/11/13 00:25:07;;;;;;;;;91.50;84.00;;;;;16.30;100.00;100346.47;2100850;28;46610;-50
2023/11/13 00:26:08;;;;;;;;;174.00;154.67;;;;;16.29;100.00;100345.59;2104187;28;46725;-47
2023/11/13 00:27:08;;;;;;;;;115.67;102.00;;;;;16.38;100.00;100342.44;2105047;28;46310;-52
2023/11/13 00:28:08;;;;;;;;;96.25;88.25;;;;;16.41;100.00;100354.81;2104754;28;46197;-48
2023/11/13 00:29:09;;;;;;;;;97.50;89.75;;;;;16.41;100.00;100354.81;2105392;28;46202;-50
2023/11/13 00:30:10;;;;;;;;;72.00;59.50;;;;;16.41;100.00;100353.00;2104909;28;45797;-50
2023/11/13 00:31:13;;;;;;;;;73.50;61.50;;;;;16.42;100.00;100360.09;2104604;28;46507;-46
2023/11/13 00:32:13;;;;;;;;;47.00;38.60;;;;;16.42;100.00;100360.09;2105059;28;47051;-46
2023/11/13 00:33:13;;;;;;;;;77.25;67.25;;;;;16.33;100.00;100357.00;2103163;28;46389;-46
2023/11/13 00:34:13;;;;;;;;;49.00;40.75;;;;;16.36;100.00;100352.34;2103849;28;46408;-49
2023/11/13 00:35:14;;;;;;;;;37.50;32.00;;;;;16.36;100.00;100347.00;2104719;28;46832;-49
2023/11/13 00:36:15;;;;;;;;;82.25;74.25;;;;;16.39;100.00;100346.88;2103720;28;46741;-48
2023/11/13 00:37:15;;;;;;;;;76.00;66.60;;;;;16.41;100.00;100336.94;2098643;28;46320;-48
2023/11/13 00:38:16;;;;;;;;;67.25;51.25;;;;;16.42;100.00;100332.44;2096297;28;46229;-50
2023/11/13 00:39:17;;;;;;;;;71.50;53.00;;;;;16.42;100.00;100336.00;2098083;28;46741;-50
2023/11/13 00:40:17;;;;;;;;;53.00;43.80;;;;;16.43;100.00;100336.84;2103404;28;46689;-46
2023/11/13 00:41:18;;;;;;;;;44.25;35.00;;;;;16.42;100.00;100338.66;2079618;28;46419;-51
2023/11/13 00:42:19;;;;;;;;;8.00;7.33;;;;;16.43;100.00;100335.03;2066167;28;46143;-50
2023/11/13 00:43:20;;;;;;;;;10.60;8.20;;;;;16.43;100.00;100347.56;2105714;27;45690;-50
2023/11/13 00:44:20;;;;;;;;;18.25;17.25;;;;;16.41;100.00;100353.00;2086698;28;46778;-53
2023/11/13 00:45:20;;;;;;;;;28.25;25.50;;;;;16.42;100.00;100356.56;2070930;28;46340;-48
2023/11/13 00:46:21;;;;;;;;;39.50;33.00;;;;;16.43;100.00;100359.16;2073476;28;47041;-50
2023/11/13 00:47:21;;;;;;;;;23.25;18.25;;;;;16.43;100.00;100359.16;2065858;28;46567;-51
2023/11/13 00:48:22;;;;;;;;;35.00;30.00;;;;;16.43;100.00;100356.47;2070521;28;46368;-53
2023/11/13 00:49:22;;;;;;;;;17.00;12.25;;;;;16.44;100.00;100360.00;2081597;27;46384;-50
2023/11/13 00:50:22;;;;;;;;;64.00;49.75;;;;;16.43;100.00;100358.28;2072997;28;46791;-49
2023/11/13 00:51:23;;;;;;;;;30.75;27.75;;;;;16.43;100.00;100351.09;2071168;28;46869;-50
2023/11/13 00:52:23;;;;;;;;;35.25;31.00;;;;;16.44;100.00;100357.34;2074127;28;46596;-48
2023/11/13 00:53:24;;;;;;;;;21.75;19.00;;;;;16.44;100.00;100360.00;2070933;28;45223;-51
2023/11/13 00:54:24;;;;;;;;;29.25;23.00;;;;;16.43;100.00;100356.47;2074379;28;45249;-49
2023/11/13 00:55:25;;;;;;;;;14.00;13.00;;;;;16.44;100.00;100358.19;2074603;28;46467;-51
2023/11/13 00:56:25;;;;;;;;;17.75;11.75;;;;;16.44;100.00;100352.84;2070637;28;46953;-50
2023/11/13 00:57:26;;;;;;;;;8.67;8.67;;;;;16.45;100.00;100348.34;2066379;28;46385;-51
2023/11/13 00:58:26;;;;;;;;;10.33;10.33;;;;;16.45;100.00;100340.31;2065801;28;46365;-50
2023/11/13 00:59:26;;;;;;;;;12.00;11.00;;;;;16.44;100.00;100338.59;2071855;28;46400;-49
2023/11/13 01:00:27;;;;;;;;;9.67;9.00;;;;;16.44;100.00;100339.44;2073794;28;46168;-53
2023/11/13 01:01:27;;;;;;;;;8.33;6.67;;;;;16.44;100.00;100341.25;2071223;28;46465;-49
2023/11/13 01:02:27;;;;;;;;;9.67;6.67;;;;;16.43;100.00;100336.84;2073664;28;46827;-45
2023/11/13 01:03:31;;;;;;;;;7.67;6.67;;;;;16.42;100.00;100335.13;2073337;28;46611;-53
2023/11/13 01:04:31;;;;;;;;;9.50;7.25;;;;;16.41;100.00;100323.53;2078828;28;46960;-49
2023/11/13 01:05:33;;;;;;;;;9.67;8.67;;;;;16.42;100.00;100327.09;2084469;27;45835;-49
2023/11/13 01:06:33;;;;;;;;;8.00;6.00;;;;;16.41;100.00;100328.91;2063291;28;46800;-49
2023/11/13 01:07:34;;;;;;;;;6.33;6.33;;;;;16.41;100.00;100334.25;2067623;28;46698;-47
2023/11/13 01:08:34;;;;;;;;;8.00;7.67;;;;;16.41;100.00;100320.88;2083705;28;46600;-47
2023/11/13 01:09:36;;;;;;;;;7.00;6.00;;;;;16.46;100.00;100325.97;2069888;28;46617;-44
2023/11/13 01:10:36;;;;;;;;;6.50;4.25;;;;;16.43;100.00;100326.16;2088249;28;46282;-49
2023/11/13 01:11:36;;;;;;;;;8.67;6.33;;;;;16.42;100.00;100327.09;2080573;28;46680;-49
2023/11/13 01:12:37;;;;;;;;;4.67;3.00;;;;;16.41;100.00;100323.53;2079375;28;46178;-49
2023/11/13 01:13:38;;;;;;;;;7.00;6.00;;;;;16.42;100.00;100319.06;2071858;28;46754;-53
2023/11/13 01:14:38;;;;;;;;;6.67;4.00;;;;;16.41;100.00;100322.69;2065556;28;46486;-49
2023/11/13 01:15:38;;;;;;;;;4.67;4.00;;;;;16.41;100.00;100322.69;2074154;28;47148;-46
2023/11/13 01:16:39;;;;;;;;;6.67;6.00;;;;;16.41;100.00;100320.88;2085570;28;46427;-47
2023/11/13 01:17:39;;;;;;;;;4.00;4.00;;;;;16.40;100.00;100321.81;2075548;28;46372;-51
2023/11/13 01:18:40;;;;;;;;;4.67;4.00;;;;;16.40;100.00;100324.50;2089690;28;46329;-51
2023/11/13 01:19:40;;;;;;;;;3.00;3.00;;;;;16.39;100.00;100317.41;2078686;28;46252;-51
2023/11/13 01:20:41;;;;;;;;;4.00;4.00;;;;;16.40;100.00;100323.63;2081834;28;46752;-53
2023/11/13 01:21:41;;;;;;;;;8.00;8.00;;;;;16.39;100.00;100316.53;2092891;28;46639;-49
2023/11/13 01:22:41;;;;;;;;;7.00;5.00;;;;;16.40;100.00;100316.47;2105660;28;46646;-48
2023/11/13 01:23:42;;;;;;;;;5.67;4.67;;;;;16.40;100.00;100315.59;2088607;28;45330;-51
2023/11/13 01:24:42;;;;;;;;;8.00;6.67;;;;;16.40;100.00;100312.91;2084584;28;46371;-50
2023/11/13 01:25:42;;;;;;;;;4.67;3.00;;;;;16.40;100.00;100300.41;2078907;28;46568;-49
2023/11/13 01:26:43;;;;;;;;;6.00;5.00;;;;;16.40;100.00;100294.16;2094344;28;46350;-50
2023/11/13 01:27:43;;;;;;;;;6.33;5.00;;;;;16.40;100.00;100288.81;2078069;28;46738;-50
2023/11/13 01:28:43;;;;;;;;;5.33;5.33;;;;;16.39;100.00;100279.91;2086787;27;46220;-51
2023/11/13 01:29:44;;;;;;;;;7.00;3.00;;;;;16.38;100.00;100278.16;2091325;28;46232;-51
2023/11/13 01:30:44;;;;;;;;;3.67;3.67;;;;;16.37;100.00;100259.50;2070422;28;46197;-48
2023/11/13 01:31:45;;;;;;;;;9.33;5.67;;;;;16.39;100.00;100262.97;2083434;28;46679;-51
2023/11/13 01:32:46;;;;;;;;;2.33;1.67;;;;;16.39;100.00;100253.13;2083222;28;46545;-49
2023/11/13 01:33:46;;;;;;;;;4.75;3.75;;;;;16.39;100.00;100241.56;2084549;28;46625;-47
2023/11/13 01:34:47;;;;;;;;;3.00;3.00;;;;;16.39;100.00;100254.94;2096824;28;46721;-51
2023/11/13 01:35:47;;;;;;;;;3.67;3.00;;;;;16.37;100.00;100257.69;2073930;28;45491;-51
2023/11/13 01:36:48;;;;;;;;;4.00;4.00;;;;;16.36;100.00;100269.34;2061020;28;46512;-45
2023/11/13 01:37:48;;;;;;;;;6.00;4.00;;;;;16.35;100.00;100275.66;2082760;28;46248;-49
2023/11/13 01:38:48;;;;;;;;;4.00;4.00;;;;;16.34;100.00;100268.56;2081254;28;46751;-49
2023/11/13 01:39:49;;;;;;;;;3.33;2.33;;;;;16.33;100.00;100279.34;2100196;28;46300;-48
2023/11/13 01:40:51;;;;;;;;;5.00;2.33;;;;;16.31;100.00;100276.75;2066066;28;45943;-48
2023/11/13 01:41:52;;;;;;;;;3.00;3.00;;;;;16.33;100.00;100274.00;2061364;28;46724;-48
2023/11/13 01:42:52;;;;;;;;;5.00;5.00;;;;;16.33;100.00;100282.03;2067150;28;46115;-50
2023/11/13 01:43:53;;;;;;;;;7.00;5.00;;;;;16.32;100.00;100272.28;2070835;28;45609;-49
2023/11/13 01:44:55;;;;;;;;;8.67;4.67;;;;;16.31;100.00;100279.44;2097463;27;46083;-49
2023/11/13 01:45:58;;;;;;;;;3.75;2.75;;;;;16.31;100.00;100278.56;2073267;28;45619;-47
2023/11/13 01:46:58;;;;;;;;;2.50;2.50;;;;;16.30;100.00;100282.19;2067971;28;46978;-49
2023/11/13 01:48:00;;;;;;;;;5.67;4.67;;;;;16.30;100.00;100274.16;2101505;28;47001;-50
2023/11/13 01:49:01;;;;;;;;;6.00;4.00;;;;;16.29;100.00;100273.31;2076055;28;46720;-48
2023/11/13 01:50:04;;;;;;;;;3.00;3.00;;;;;16.27;100.00;100275.19;2061449;28;46349;-50
2023/11/13 01:51:05;;;;;;;;;7.25;4.25;;;;;16.26;100.00;100272.56;2096330;28;47035;-49
2023/11/13 01:52:07;;;;;;;;;2.00;1.67;;;;;16.26;100.00;100267.22;2076678;28;46792;-50
2023/11/13 01:53:09;;;;;;;;;6.50;4.00;;;;;16.24;100.00;100261.94;2097796;27;46704;-47
2023/11/13 01:54:09;;;;;;;;;5.50;4.00;;;;;16.26;100.00;100253.84;2099494;27;46416;-47
2023/11/13 01:55:11;;;;;;;;;4.33;4.33;;;;;16.24;100.00;100253.91;2082749;28;46641;-47
2023/11/13 01:56:11;;;;;;;;;3.50;3.50;;;;;16.24;100.00;100248.56;2101120;28;46841;-50
2023/11/13 01:57:12;;;;;;;;;5.67;2.67;;;;;16.24;100.00;100256.59;2099523;27;46185;-48
2023/11/13 01:58:14;;;;;;;;;7.00;4.00;;;;;16.24;100.00;100253.06;2099519;28;46658;-49
2023/11/13 01:59:16;;;;;;;;;5.25;3.75;;;;;16.22;100.00;100253.13;2068907;28;46741;-52
2023/11/13 02:00:17;;;;;;;;;5.50;3.75;;;;;16.22;100.00;100254.94;2080946;28;46308;-49
2023/11/13 02:01:18;;;;;;;;;3.67;3.00;;;;;16.21;100.00;100247.88;2092250;28;46232;-48
2023/11/13 02:02:19;;;;;;;;;2.25;2.25;;;;;16.19;100.00;100254.16;2095524;28;46465;-48
2023/11/13 02:03:20;;;;;;;;;4.00;4.00;;;;;16.20;100.00;100257.72;2078033;28;46448;-48
2023/11/13 02:04:20;;;;;;;;;7.00;3.50;;;;;16.21;100.00;100263.94;2099895;27;46749;-52
2023/11/13 02:05:21;;;;;;;;;6.33;3.33;;;;;16.21;100.00;100272.81;2082155;27;46324;-50
2023/11/13 02:06:24;;;;;;;;;4.33;4.33;;;;;16.21;100.00;100267.47;2060697;28;46241;-46
2023/11/13 02:07:24;;;;;;;;;6.25;3.25;;;;;16.21;100.00;100263.94;2076330;28;46415;-48
2023/11/13 02:08:25;;;;;;;;;3.67;2.33;;;;;16.20;100.00;100257.72;2098523;28;46200;-51
2023/11/13 02:09:26;;;;;;;;;3.67;3.67;;;;;16.18;100.00;100247.09;2091874;28;46298;-49
2023/11/13 02:10:26;;;;;;;;;5.25;2.25;;;;;16.19;100.00;100255.97;2084590;27;45334;-48
2023/11/13 02:11:28;;;;;;;;;4.00;3.00;;;;;16.19;100.00;100264.88;2105063;28;46816;-48
2023/11/13 02:12:29;;;;;;;;;6.75;4.25;;;;;16.19;100.00;100262.19;2107408;27;46005;-53
2023/11/13 02:13:29;;;;;;;;;3.00;2.00;;;;;16.19;100.00;100267.56;2103870;28;46362;-48
2023/11/13 02:14:30;;;;;;;;;4.33;3.33;;;;;16.21;100.00;100261.25;2091920;28;46493;-49
2023/11/13 02:15:31;;;;;;;;;3.33;3.33;;;;;16.21;100.00;100266.59;2076938;27;46284;-48
2023/11/13 02:16:31;;;;;;;;;1.25;1.25;;;;;16.22;100.00;100260.31;2065931;27;46315;-50
2023/11/13 02:17:40;;;;;;;;;3.25;3.00;;;;;16.21;100.00;100266.59;2119337;27;44791;-50
2023/11/13 02:18:41;;;;;;;;;3.33;2.67;;;;;16.22;100.00;100260.31;2112070;27;46437;-53
2023/11/13 02:19:43;;;;;;;;;2.00;1.00;;;;;16.21;100.00;100243.38;2103356;28;46574;-48
2023/11/13 02:20:43;;;;;;;;;2.00;2.00;;;;;16.22;100.00;100233.53;2101894;27;46594;-50
2023/11/13 02:21:44;;;;;;;;;4.00;4.00;;;;;16.21;100.00;100231.81;2111769;27;45846;-51
2023/11/13 02:22:44;;;;;;;;;1.00;1.00;;;;;16.19;100.00;100234.56;2111781;27;46379;-49
2023/11/13 02:23:44;;;;;;;;;2.00;2.00;;;;;16.18;100.00;100238.19;2094391;28;46461;-51
2023/11/13 02:24:45;;;;;;;;;3.00;3.00;;;;;16.15;100.00;100244.56;2097455;28;46187;-49
2023/11/13 02:25:52;;;;;;;;;1.00;1.00;;;;;16.15;100.00;100236.53;2098654;28;47195;-50
2023/11/13 02:26:53;;;;;;;;;4.75;2.25;;;;;16.12;100.00;100230.47;2101818;28;47114;-49
2023/11/13 02:28:00;;;;;;;;;3.67;2.33;;;;;16.11;100.00;100239.44;2096257;28;46252;-50
2023/11/13 02:29:01;;;;;;;;;3.00;2.00;;;;;16.08;100.00;100243.16;2097706;28;46287;-48
2023/11/13 02:30:02;;;;;;;;;3.00;3.00;;;;;16.08;100.00;100237.78;2094154;28;46669;-49
2023/11/13 02:31:02;;;;;;;;;3.00;3.00;;;;;16.08;100.00;100232.44;2097085;28;46661;-48
2023/11/13 02:32:03;;;;;;;;;2.00;2.00;;;;;16.08;100.00;100223.56;2097426;28;46774;-47
2023/11/13 02:33:03;;;;;;;;;3.67;2.33;;;;;16.07;100.00;100222.69;2097353;28;46442;-47
2023/11/13 02:34:04;;;;;;;;;1.67;1.67;;;;;16.07;100.00;100224.50;2092539;28;46800;-49
2023/11/13 02:35:04;;;;;;;;;1.67;1.67;;;;;16.05;100.00;100226.38;2086905;28;46461;-50
2023/11/13 02:36:05;;;;;;;;;3.00;2.67;;;;;16.04;100.00;100216.63;2090348;28;46376;-51
2023/11/13 02:37:06;;;;;;;;;5.33;1.67;;;;;16.02;100.00;100218.53;2077237;28;46654;-51
2023/11/13 02:38:06;;;;;;;;;2.67;2.67;;;;;16.02;100.00;100207.81;2082993;28;46252;-49
2023/11/13 02:39:06;;;;;;;;;3.67;2.00;;;;;16.01;100.00;100203.41;2102191;28;46841;-50
2023/11/13 02:40:11;;;;;;;;;3.33;2.00;;;;;16.02;100.00;100202.47;2100387;28;46554;-49
2023/11/13 02:41:13;;;;;;;;;3.75;2.75;;;;;15.98;100.00;100209.78;2098207;28;46380;-52
2023/11/13 02:42:13;;;;;;;;;2.75;0.75;;;;;15.98;100.00;100200.88;2094525;28;46438;-47
2023/11/13 02:43:14;;;;;;;;;4.33;2.67;;;;;15.95;100.00;100199.22;2095070;28;46322;-49
2023/11/13 02:44:15;;;;;;;;;2.67;1.33;;;;;15.97;100.00;100201.81;2098338;28;46498;-51
2023/11/13 02:45:15;;;;;;;;;2.75;1.75;;;;;15.95;100.00;100193.88;2100005;28;46160;-50
2023/11/13 02:46:16;;;;;;;;;2.33;1.67;;;;;15.95;100.00;100185.84;2093817;28;46462;-47
2023/11/13 02:47:17;;;;;;;;;1.67;1.67;;;;;15.95;100.00;100180.50;2094210;28;46615;-52
2023/11/13 02:48:17;;;;;;;;;2.00;2.00;;;;;15.94;100.00;100173.41;2099912;28;45612;-49
2023/11/13 02:49:18;;;;;;;;;2.33;1.67;;;;;15.93;100.00;100169.03;2094185;28;46723;-51
2023/11/13 02:50:19;;;;;;;;;4.33;1.67;;;;;15.94;100.00;100173.41;2093595;28;47037;-49
2023/11/13 02:51:19;;;;;;;;;2.50;1.50;;;;;15.96;100.00;100159.97;2089065;28;46475;-46
2023/11/13 02:52:20;;;;;;;;;1.67;1.67;;;;;15.98;100.00;100150.03;2087992;28;46365;-49
2023/11/13 02:53:20;;;;;;;;;4.00;1.67;;;;;15.98;100.00;100160.72;2092580;28;46906;-47
2023/11/13 02:54:20;;;;;;;;;2.00;2.00;;;;;15.96;100.00;100170.66;2096058;28;46528;-49
2023/11/13 02:55:21;;;;;;;;;2.00;2.00;;;;;15.94;100.00;100169.88;2104696;27;47081;-48
2023/11/13 02:56:21;;;;;;;;;2.00;2.00;;;;;15.93;100.00;100174.38;2111501;27;46471;-52
2023/11/13 02:57:22;;;;;;;;;1.67;1.67;;;;;15.93;100.00;100177.03;2105468;27;46551;-52
2023/11/13 02:58:22;;;;;;;;;2.50;2.00;;;;;15.92;100.00;100180.66;2110826;27;46905;-51
2023/11/13 02:59:23;;;;;;;;;4.00;2.00;;;;;15.93;100.00;100193.09;2111861;27;46090;-50
2023/11/13 03:00:23;;;;;;;;;1.67;1.67;;;;;15.93;100.00;100178.84;2111804;27;46737;-50
2023/11/13 03:01:23;;;;;;;;;2.67;2.67;;;;;15.93;100.00;100171.69;2102866;28;46555;-50
2023/11/13 03:02:24;;;;;;;;;2.33;2.33;;;;;15.93;100.00;100177.03;2102436;28;46297;-49
2023/11/13 03:03:26;;;;;;;;;3.33;3.33;;;;;15.93;100.00;100163.66;2112059;27;46035;-51
2023/11/13 03:04:26;;;;;;;;;1.50;0.75;;;;;15.95;100.00;100163.56;2111448;27;46719;-50
2023/11/13 03:05:26;;;;;;;;;0.67;0.67;;;;;15.96;100.00;100174.19;2106116;27;46491;-46
2023/11/13 03:06:27;;;;;;;;;3.00;3.00;;;;;15.97;100.00;100181.28;2110153;27;46465;-51
2023/11/13 03:07:27;;;;;;;;;3.33;3.33;;;;;15.98;100.00;100174.13;2103163;28;46263;-49
2023/11/13 03:08:27;;;;;;;;;4.00;2.67;;;;;15.98;100.00;100174.97;2106649;27;46472;-49
2023/11/13 03:09:28;;;;;;;;;7.33;3.00;;;;;15.98;100.00;100158.06;2109769;27;46762;-50
2023/11/13 03:10:28;;;;;;;;;5.00;4.00;;;;;15.98;100.00;100164.28;2110232;27;46461;-52
2023/11/13 03:11:28;;;;;;;;;2.33;2.33;;;;;15.99;100.00;100160.66;2110007;27;45693;-47
2023/11/13 03:12:29;;;;;;;;;4.00;4.00;;;;;16.00;100.00;100173.09;2111582;27;46158;-46
2023/11/13 03:13:29;;;;;;;;;4.67;2.67;;;;;16.02;100.00;100154.28;2111837;27;46891;-50
2023/11/13 03:14:30;;;;;;;;;4.67;4.67;;;;;16.04;100.00;100163.09;2111901;27;45964;-51
2023/11/13 03:15:30;;;;;;;;;5.00;3.33;;;;;16.05;100.00;100162.16;2102336;28;46193;-49
2023/11/13 03:16:30;;;;;;;;;3.67;3.00;;;;;16.06;100.00;100155.84;2102928;28;46796;-48
2023/11/13 03:17:31;;;;;;;;;2.67;2.67;;;;;16.07;100.00;100153.09;2111496;27;45945;-49
2023/11/13 03:18:31;;;;;;;;;4.33;3.00;;;;;16.09;100.00;100150.31;2112264;27;46993;-48
2023/11/13 03:19:31;;;;;;;;;2.00;2.00;;;;;16.09;100.00;100155.69;2111704;27;46136;-46
2023/11/13 03:20:32;;;;;;;;;4.67;3.00;;;;;16.07;100.00;100149.56;2112241;27;46810;-48
2023/11/13 03:21:33;;;;;;;;;6.00;3.00;;;;;16.07;100.00;100147.75;2111374;27;46503;-49
2023/11/13 03:22:34;;;;;;;;;4.00;1.75;;;;;16.07;100.00;100141.53;2111611;27;46555;-48
2023/11/13 03:23:34;;;;;;;;;3.67;3.67;;;;;16.08;100.00;100146.78;2112037;27;45020;-49
2023/11/13 03:24:34;;;;;;;;;3.67;2.67;;;;;16.09;100.00;100153.00;2093340;28;46213;-49
2023/11/13 03:25:35;;;;;;;;;4.33;4.00;;;;;16.10;100.00;100144.03;2093515;28;46171;-49
2023/11/13 03:26:35;;;;;;;;;3.33;3.33;;;;;16.11;100.00;100151.09;2111535;27;46815;-48
2023/11/13 03:27:36;;;;;;;;;5.33;1.33;;;;;16.14;100.00;100150.97;2109909;27;46618;-47
2023/11/13 03:28:36;;;;;;;;;5.50;3.25;;;;;16.12;100.00;100143.00;2108153;27;46799;-53
2023/11/13 03:29:37;;;;;;;;;2.67;2.33;;;;;16.14;100.00;100140.25;2105905;28;46219;-51
2023/11/13 03:30:38;;;;;;;;;4.50;2.75;;;;;16.13;100.00;100130.47;2105838;28;46925;-51
2023/11/13 03:31:38;;;;;;;;;3.67;3.67;;;;;16.15;100.00;100139.31;2105652;28;46846;-52
2023/11/13 03:32:42;;;;;;;;;4.33;3.67;;;;;16.17;100.00;100132.91;2106161;28;46239;-53
2023/11/13 03:33:42;;;;;;;;;3.25;3.00;;;;;16.18;100.00;100140.00;2105486;28;46349;-49
2023/11/13 03:34:42;;;;;;;;;5.67;4.33;;;;;16.18;100.00;100110.56;2105814;28;45275;-47
2023/11/13 03:35:42;;;;;;;;;5.00;2.33;;;;;16.18;100.00;100107.88;2103717;28;46189;-48
2023/11/13 03:36:43;;;;;;;;;6.00;3.33;;;;;16.19;100.00;100108.75;2099063;28;46851;-49
2023/11/13 03:37:44;;;;;;;;;5.67;3.33;;;;;16.17;100.00;100106.16;2105936;28;46224;-48
2023/11/13 03:38:45;;;;;;;;;4.33;4.00;;;;;16.18;100.00;100102.53;2105598;28;45912;-49
2023/11/13 03:39:45;;;;;;;;;5.00;4.25;;;;;16.18;100.00;100102.53;2105639;28;46855;-48
2023/11/13 03:40:46;;;;;;;;;6.00;4.00;;;;;16.10;100.00;100096.72;2105587;28;46569;-49
2023/11/13 03:41:46;;;;;;;;;3.67;3.67;;;;;16.11;100.00;100102.94;2105701;28;46882;-51
2023/11/13 03:42:46;;;;;;;;;5.33;3.00;;;;;16.10;100.00;100093.16;2097259;28;46481;-49
2023/11/13 03:43:46;;;;;;;;;5.00;4.00;;;;;16.15;100.00;100100.03;2095551;28;46344;-47
2023/11/13 03:44:47;;;;;;;;;2.67;2.67;;;;;16.17;100.00;100092.75;2105639;28;46258;-49
2023/11/13 03:45:47;;;;;;;;;4.67;3.67;;;;;16.14;100.00;100082.22;2105856;28;46789;-52
2023/11/13 03:46:48;;;;;;;;;4.00;2.67;;;;;16.14;100.00;100078.69;2105464;28;45909;-51
2023/11/13 03:47:49;;;;;;;;;6.00;5.33;;;;;16.21;100.00;100081.88;2096714;28;46315;-51
2023/11/13 03:48:49;;;;;;;;;6.33;6.33;;;;;16.21;100.00;100079.19;2096908;28;46249;-52
2023/11/13 03:49:50;;;;;;;;;6.67;5.67;;;;;16.23;100.00;100088.88;2105481;28;46473;-50
2023/11/13 03:50:50;;;;;;;;;4.67;4.00;;;;;16.23;100.00;100083.50;2105814;28;46601;-51
2023/11/13 03:51:50;;;;;;;;;6.33;5.00;;;;;16.26;100.00;100082.47;2105565;28;46461;-47
2023/11/13 03:52:51;;;;;;;;;6.33;4.67;;;;;16.24;100.00;100079.03;2100835;28;45984;-51
2023/11/13 03:53:52;;;;;;;;;11.00;4.67;;;;;16.26;100.00;100082.47;2088520;28;47208;-47
2023/11/13 03:54:52;;;;;;;;;4.00;3.50;;;;;16.28;100.00;100085.97;2096554;28;46888;-49
2023/11/13 03:55:52;;;;;;;;;2.67;2.00;;;;;16.29;100.00;100085.88;2106170;28;46257;-48
2023/11/13 03:56:53;;;;;;;;;5.33;5.00;;;;;16.31;100.00;100085.78;2105614;28;46116;-46
2023/11/13 03:57:53;;;;;;;;;5.67;4.00;;;;;16.31;100.00;100088.47;2105460;28;46658;-49
2023/11/13 03:58:53;;;;;;;;;3.67;2.33;;;;;16.30;100.00;100086.75;2105155;28;46713;-47
2023/11/13 03:59:54;;;;;;;;;4.00;4.00;;;;;16.31;100.00;100083.09;2105044;28;47418;-47
2023/11/13 04:00:54;;;;;;;;;4.00;4.00;;;;;16.31;100.00;100085.78;2105450;28;46250;-48
2023/11/13 04:01:54;;;;;;;;;8.00;4.67;;;;;16.32;100.00;100080.34;2096542;28;45688;-49
2023/11/13 04:02:55;;;;;;;;;6.00;4.67;;;;;16.33;100.00;100075.84;2087636;28;46777;-49
2023/11/13 04:03:55;;;;;;;;;7.67;5.33;;;;;16.33;100.00;100067.81;2096957;28;46647;-47
2023/11/13 04:04:55;;;;;;;;;6.00;4.00;;;;;16.35;100.00;100071.25;2105589;28;46595;-47
2023/11/13 04:05:57;;;;;;;;;5.00;4.00;;;;;16.35;100.00;100065.91;2096475;28;46194;-48
2023/11/13 04:06:57;;;;;;;;;3.75;3.25;;;;;16.36;100.00;100071.19;2079298;28;46635;-48
2023/11/13 04:07:58;;;;;;;;;7.00;6.00;;;;;16.35;100.00;100065.91;2087971;28;46670;-47
2023/11/13 04:08:58;;;;;;;;;3.67;3.33;;;;;16.35;100.00;100065.91;2105203;28;47023;-48
2023/11/13 04:09:59;;;;;;;;;6.33;4.00;;;;;16.39;100.00;100067.50;2105600;28;46522;-48
2023/11/13 04:11:03;;;;;;;;;4.25;4.25;;;;;16.39;100.00;100059.47;2105441;28;46636;-51
2023/11/13 04:12:04;;;;;;;;;1.25;1.25;;;;;16.38;100.00;100055.88;2105366;28;47238;-47
2023/11/13 04:13:04;;;;;;;;;4.67;2.67;;;;;16.41;100.00;100058.41;2079283;28;46541;-48
2023/11/13 04:14:05;;;;;;;;;4.00;4.00;;;;;16.41;100.00;100054.88;2070067;28;46675;-48
2023/11/13 04:15:07;;;;;;;;;3.67;3.67;;;;;16.45;100.00;100053.75;2088929;28;46714;-49
2023/11/13 04:16:08;;;;;;;;;4.50;3.50;;;;;16.46;100.00;100068.84;2101070;28;46324;-47
2023/11/13 04:17:08;;;;;;;;;5.00;3.00;;;;;16.46;100.00;100053.66;2105247;28;46527;-49
2023/11/13 04:18:08;;;;;;;;;3.33;3.00;;;;;16.47;100.00;100055.38;2105799;28;47016;-48
2023/11/13 04:19:09;;;;;;;;;5.33;3.67;;;;;16.49;100.00;100057.97;2096726;28;46208;-47
2023/11/13 04:20:12;;;;;;;;;5.67;3.67;;;;;16.49;100.00;100045.44;2096752;28;46678;-47
2023/11/13 04:21:13;;;;;;;;;5.75;4.50;;;;;16.49;100.00;100044.56;2105434;28;46248;-50
2023/11/13 04:22:14;;;;;;;;;7.50;4.25;;;;;16.52;100.00;100049.78;2105379;28;46502;-48
2023/11/13 04:23:14;;;;;;;;;6.00;5.00;;;;;16.53;100.00;100053.31;2105708;28;46587;-47
2023/11/13 04:24:15;;;;;;;;;4.67;4.67;;;;;16.53;100.00;100048.81;2105487;28;46308;-52
2023/11/13 04:25:16;;;;;;;;;7.33;5.00;;;;;16.53;100.00;100050.63;2105548;28;46213;-48
2023/11/13 04:26:16;;;;;;;;;4.33;4.33;;;;;16.53;100.00;100054.19;2105213;28;46225;-51
2023/11/13 04:27:17;;;;;;;;;4.00;3.00;;;;;16.53;100.00;100051.50;2105643;28;46345;-48
2023/11/13 04:28:19;;;;;;;;;4.00;3.33;;;;;16.53;100.00;100043.47;2105347;28;46286;-50
2023/11/13 04:29:19;;;;;;;;;5.00;3.25;;;;;16.55;100.00;100046.06;2096802;28;46452;-48
2023/11/13 04:30:20;;;;;;;;;5.00;4.33;;;;;16.55;100.00;100038.88;2095052;28;46327;-46
2023/11/13 04:31:20;;;;;;;;;9.33;4.00;;;;;16.57;100.00;100036.97;2105820;28;46518;-47
2023/11/13 04:32:21;;;;;;;;;5.67;5.33;;;;;16.58;100.00;100033.34;2105360;28;46579;-50
2023/11/13 04:33:22;;;;;;;;;3.00;2.50;;;;;16.59;100.00;100040.44;2105303;28;46819;-50
2023/11/13 04:34:22;;;;;;;;;6.00;4.00;;;;;16.59;100.00;100032.38;2096504;28;46546;-51
2023/11/13 04:35:22;;;;;;;;;7.33;3.67;;;;;16.61;100.00;100021.59;2096516;28;46477;-51
2023/11/13 04:36:23;;;;;;;;;5.33;4.33;;;;;16.62;100.00;100018.81;2104857;28;46251;-50
2023/11/13 04:37:23;;;;;;;;;6.00;3.00;;;;;16.61;100.00;100024.25;2099200;27;46122;-50
2023/11/13 04:38:24;;;;;;;;;7.33;4.00;;;;;16.61;100.00;100034.97;2105110;28;46745;-48